Time;durP1;ratioP1;P1;durP2;ratioP2;P2;SDS_P1;SDS_P2;PMS_P1;PMS_P2;Temp;Humidity;BMP_temperature;BMP_pressure;BME280_temperature;BME280_humidity;BME280_pressure;Samples;Min_cycle;Max_cycle;Signal;HPM_P1;HPM_P2
2021/10/09 00:00:04;;;;;;;;;31.25;28.75;;;;;;;;5017530;28;45304;-69
2021/10/09 00:02:30;;;;;;;;;32.50;26.00;;;;;;;;5017599;28;45304;-68
2021/10/09 00:04:55;;;;;;;;;26.25;21.75;;;;;;;;5017705;28;45342;-69
2021/10/09 00:07:20;;;;;;;;;29.00;28.50;;;;;;;;5016305;28;48291;-67
2021/10/09 00:09:46;;;;;;;;;27.50;23.00;;;;;;;;5017296;28;45405;-67
2021/10/09 00:12:12;;;;;;;;;30.50;24.50;;;;;;;;5017282;28;45411;-67
2021/10/09 00:14:37;;;;;;;;;26.75;24.75;;;;;;;;5017358;28;45319;-68
2021/10/09 00:17:02;;;;;;;;;22.00;21.50;;;;;;;;5016989;28;46142;-68
2021/10/09 00:19:28;;;;;;;;;27.00;25.75;;;;;;;;5017325;28;45221;-66
2021/10/09 00:21:53;;;;;;;;;29.75;27.75;;;;;;;;5017894;28;45334;-68
2021/10/09 00:24:19;;;;;;;;;27.00;24.75;;;;;;;;5017569;28;45501;-67
2021/10/09 00:26:46;;;;;;;;;28.25;23.00;;;;;;;;5016743;28;45770;-67
2021/10/09 00:29:11;;;;;;;;;28.50;23.75;;;;;;;;5016854;28;45327;-67
2021/10/09 00:31:36;;;;;;;;;26.50;24.75;;;;;;;;5016925;28;45289;-67
2021/10/09 00:34:02;;;;;;;;;24.50;22.75;;;;;;;;5017166;28;45494;-68
2021/10/09 00:36:27;;;;;;;;;25.50;23.00;;;;;;;;5015945;28;46243;-68
2021/10/09 00:38:54;;;;;;;;;25.75;22.25;;;;;;;;5017297;28;45350;-67
2021/10/09 00:41:19;;;;;;;;;27.00;25.50;;;;;;;;5017127;28;45349;-67
2021/10/09 00:43:44;;;;;;;;;27.75;24.25;;;;;;;;5016694;28;45502;-67
2021/10/09 00:46:10;;;;;;;;;26.00;23.75;;;;;;;;5016708;28;46071;-68
2021/10/09 00:48:35;;;;;;;;;23.00;20.50;;;;;;;;5016572;28;45322;-67
2021/10/09 00:51:01;;;;;;;;;27.50;25.25;;;;;;;;5015406;28;45371;-67
2021/10/09 00:53:28;;;;;;;;;27.00;25.25;;;;;;;;5017169;28;45843;-68
2021/10/09 00:55:55;;;;;;;;;27.50;24.25;;;;;;;;5017213;28;46341;-67
2021/10/09 00:58:21;;;;;;;;;30.00;25.00;;;;;;;;5016526;28;45350;-66
2021/10/09 01:00:46;;;;;;;;;27.25;24.50;;;;;;;;5017047;28;45400;-66
2021/10/09 01:03:12;;;;;;;;;26.25;25.25;;;;;;;;5016959;28;45612;-67
2021/10/09 01:05:38;;;;;;;;;21.50;21.00;;;;;;;;5016347;28;45339;-67
2021/10/09 01:08:04;;;;;;;;;20.25;17.75;;;;;;;;5016699;28;45380;-67
2021/10/09 01:10:29;;;;;;;;;30.00;24.25;;;;;;;;5016335;28;45326;-67
2021/10/09 01:12:54;;;;;;;;;24.00;22.50;;;;;;;;5015721;28;45272;-66
2021/10/09 01:15:21;;;;;;;;;30.75;25.75;;;;;;;;5016352;28;46075;-67
2021/10/09 01:17:46;;;;;;;;;26.00;24.00;;;;;;;;5016112;28;45393;-67
2021/10/09 01:20:12;;;;;;;;;30.50;25.00;;;;;;;;5016348;28;45315;-66
2021/10/09 01:22:38;;;;;;;;;26.50;25.25;;;;;;;;5016809;28;45339;-66
2021/10/09 01:25:04;;;;;;;;;23.25;22.00;;;;;;;;5014930;28;46099;-67
2021/10/09 01:27:29;;;;;;;;;26.75;24.25;;;;;;;;5014987;28;45327;-67
2021/10/09 01:29:54;;;;;;;;;22.75;21.50;;;;;;;;5016613;28;45362;-70
2021/10/09 01:32:19;;;;;;;;;24.00;24.00;;;;;;;;5016414;28;45557;-68
2021/10/09 01:34:45;;;;;;;;;29.00;25.75;;;;;;;;5015957;28;46497;-69
2021/10/09 01:37:10;;;;;;;;;30.50;27.75;;;;;;;;5014544;28;45329;-67
2021/10/09 01:39:40;;;;;;;;;24.50;21.00;;;;;;;;5016131;28;45399;-67
2021/10/09 01:42:05;;;;;;;;;32.00;27.00;;;;;;;;5016136;28;45399;-67
2021/10/09 01:44:31;;;;;;;;;27.75;26.75;;;;;;;;5015835;28;46752;-66
2021/10/09 01:46:56;;;;;;;;;29.25;27.75;;;;;;;;5015939;28;45267;-66
2021/10/09 01:49:21;;;;;;;;;28.25;25.75;;;;;;;;5016118;28;45443;-67
2021/10/09 01:51:46;;;;;;;;;25.75;23.50;;;;;;;;5016280;28;45331;-67
2021/10/09 01:54:11;;;;;;;;;27.50;27.50;;;;;;;;5015623;28;45489;-68
2021/10/09 01:56:39;;;;;;;;;25.75;21.50;;;;;;;;5015851;28;45306;-67
2021/10/09 01:59:04;;;;;;;;;29.25;28.25;;;;;;;;5015915;28;45232;-66
2021/10/09 02:01:29;;;;;;;;;31.25;26.00;;;;;;;;5016120;28;45546;-68
2021/10/09 02:03:54;;;;;;;;;26.50;26.00;;;;;;;;5014391;28;46955;-69
2021/10/09 02:06:20;;;;;;;;;29.50;28.00;;;;;;;;5016066;28;45355;-68
2021/10/09 02:08:45;;;;;;;;;29.75;27.00;;;;;;;;5014609;28;45818;-70
2021/10/09 02:11:14;;;;;;;;;32.75;28.50;;;;;;;;5015664;28;45657;-69
2021/10/09 02:13:51;;;;;;;;;30.00;26.75;;;;;;;;5015462;28;47324;-68
2021/10/09 02:27:11;;;;;;;;;32.00;26.00;;;;;;;;4994161;28;45424;-69
2021/10/09 02:29:36;;;;;;;;;33.00;28.75;;;;;;;;5015226;28;45416;-68
2021/10/09 02:32:02;;;;;;;;;25.00;23.00;;;;;;;;5014284;28;45399;-67
2021/10/09 02:34:27;;;;;;;;;30.25;28.75;;;;;;;;5015521;28;45464;-67
2021/10/09 02:36:52;;;;;;;;;37.25;30.25;;;;;;;;5014085;28;45597;-67
2021/10/09 02:39:18;;;;;;;;;34.25;30.75;;;;;;;;5015006;28;45458;-67
2021/10/09 02:41:43;;;;;;;;;31.75;29.75;;;;;;;;5013782;28;45412;-67
2021/10/09 02:44:08;;;;;;;;;37.75;30.75;;;;;;;;5015269;28;45413;-67
2021/10/09 02:46:33;;;;;;;;;30.75;28.00;;;;;;;;5015195;28;45394;-66
2021/10/09 02:48:59;;;;;;;;;33.25;29.25;;;;;;;;5015635;28;45340;-68
2021/10/09 02:51:24;;;;;;;;;32.25;29.25;;;;;;;;5015324;28;45505;-67
2021/10/09 02:53:49;;;;;;;;;29.25;29.25;;;;;;;;5014935;28;46391;-71
2021/10/09 02:56:14;;;;;;;;;28.75;28.50;;;;;;;;5014872;28;45387;-70
2021/10/09 02:58:39;;;;;;;;;29.50;26.75;;;;;;;;5015748;28;45370;-70
2021/10/09 03:01:05;;;;;;;;;34.50;27.25;;;;;;;;5018925;28;45526;-69
2021/10/09 03:03:30;;;;;;;;;32.00;28.75;;;;;;;;5018649;28;46231;-70
2021/10/09 03:05:55;;;;;;;;;32.25;29.50;;;;;;;;5018288;28;45342;-71
2021/10/09 03:08:20;;;;;;;;;33.25;29.25;;;;;;;;5016955;28;45448;-70
2021/10/09 03:10:46;;;;;;;;;28.75;25.75;;;;;;;;5018426;28;45438;-70
2021/10/09 03:13:11;;;;;;;;;34.25;29.50;;;;;;;;5018041;28;46083;-70
2021/10/09 03:15:36;;;;;;;;;34.75;28.25;;;;;;;;5018129;28;45372;-70
2021/10/09 03:18:02;;;;;;;;;36.25;30.50;;;;;;;;5018625;28;45454;-71
2021/10/09 03:20:27;;;;;;;;;32.75;23.00;;;;;;;;5017086;28;45455;-68
2021/10/09 03:22:52;;;;;;;;;35.00;29.00;;;;;;;;5017929;28;45534;-71
2021/10/09 03:25:17;;;;;;;;;41.25;31.00;;;;;;;;5018125;28;45417;-71
2021/10/09 03:27:43;;;;;;;;;35.25;29.25;;;;;;;;5018151;28;45313;-72
2021/10/09 03:30:08;;;;;;;;;30.25;30.00;;;;;;;;5018531;28;45494;-71
2021/10/09 03:32:33;;;;;;;;;38.00;31.50;;;;;;;;5018499;28;46117;-71
2021/10/09 03:34:59;;;;;;;;;34.00;31.00;;;;;;;;5018786;28;45351;-71
2021/10/09 03:37:24;;;;;;;;;35.25;30.75;;;;;;;;5019031;28;45284;-71
2021/10/09 03:39:51;;;;;;;;;40.25;32.50;;;;;;;;5019214;28;45183;-72
2021/10/09 03:42:24;;;;;;;;;32.00;30.50;;;;;;;;5019347;28;45491;-71
2021/10/09 03:44:55;;;;;;;;;42.00;33.50;;;;;;;;5018793;28;45436;-71
2021/10/09 03:49:57;;;;;;;;;38.25;33.50;;;;;;;;5018611;28;45545;-71
2021/10/09 03:55:00;;;;;;;;;33.50;30.00;;;;;;;;5016576;28;45360;-71
2021/10/09 03:57:25;;;;;;;;;39.75;33.00;;;;;;;;5017916;28;45386;-72
2021/10/09 03:59:50;;;;;;;;;39.00;34.00;;;;;;;;5018151;28;45622;-71
2021/10/09 04:02:15;;;;;;;;;34.75;31.50;;;;;;;;5016349;28;47314;-72
2021/10/09 04:04:40;;;;;;;;;37.50;34.00;;;;;;;;5017635;28;45268;-73
2021/10/09 04:07:06;;;;;;;;;40.75;33.25;;;;;;;;5018081;28;45306;-72
2021/10/09 04:09:31;;;;;;;;;40.75;33.50;;;;;;;;5018412;28;45237;-71
2021/10/09 04:11:56;;;;;;;;;41.50;32.25;;;;;;;;5017270;28;45473;-70
2021/10/09 04:14:21;;;;;;;;;47.50;36.25;;;;;;;;5017143;28;45549;-71
2021/10/09 04:16:47;;;;;;;;;44.25;35.75;;;;;;;;5017726;28;45267;-73
2021/10/09 04:19:12;;;;;;;;;40.75;33.25;;;;;;;;5017591;28;45238;-71
2021/10/09 04:21:37;;;;;;;;;42.75;32.25;;;;;;;;5017255;28;45606;-70
2021/10/09 04:24:02;;;;;;;;;42.00;34.50;;;;;;;;5017504;28;45194;-70
2021/10/09 04:26:28;;;;;;;;;45.00;36.00;;;;;;;;5017174;28;45562;-70
2021/10/09 04:28:53;;;;;;;;;36.00;33.00;;;;;;;;5017493;28;45388;-71
2021/10/09 04:31:18;;;;;;;;;40.75;34.00;;;;;;;;5016977;28;45459;-71
2021/10/09 04:33:43;;;;;;;;;42.00;34.00;;;;;;;;5016901;28;45330;-71
2021/10/09 04:36:09;;;;;;;;;36.75;31.25;;;;;;;;5017133;28;45318;-70
2021/10/09 04:38:34;;;;;;;;;44.75;36.00;;;;;;;;5017463;28;45372;-71
2021/10/09 04:40:59;;;;;;;;;41.50;34.50;;;;;;;;5016750;28;47261;-70
2021/10/09 04:43:24;;;;;;;;;41.75;34.25;;;;;;;;5016779;28;45325;-70
2021/10/09 04:45:50;;;;;;;;;46.75;36.75;;;;;;;;5017280;28;45361;-71
2021/10/09 04:48:15;;;;;;;;;40.50;34.50;;;;;;;;5017036;28;45466;-71
2021/10/09 04:50:40;;;;;;;;;44.25;34.75;;;;;;;;5016761;28;46048;-71
2021/10/09 04:53:05;;;;;;;;;45.75;36.25;;;;;;;;5017036;28;45351;-70
2021/10/09 04:55:31;;;;;;;;;42.25;35.50;;;;;;;;5016905;28;45327;-71
2021/10/09 04:57:56;;;;;;;;;47.25;36.25;;;;;;;;5016997;28;45544;-70
2021/10/09 05:00:21;;;;;;;;;43.00;37.00;;;;;;;;5016529;28;45445;-71
2021/10/09 05:02:47;;;;;;;;;39.50;33.75;;;;;;;;5016624;28;45422;-70
2021/10/09 05:05:12;;;;;;;;;42.00;34.50;;;;;;;;5016859;28;45376;-72
2021/10/09 05:07:37;;;;;;;;;47.25;38.75;;;;;;;;5017033;28;45446;-69
2021/10/09 05:10:03;;;;;;;;;44.00;34.50;;;;;;;;5016455;28;45419;-70
2021/10/09 05:12:29;;;;;;;;;43.00;33.50;;;;;;;;5016166;28;45358;-71
2021/10/09 05:14:54;;;;;;;;;42.25;35.50;;;;;;;;5016590;28;45368;-69
2021/10/09 05:17:19;;;;;;;;;44.75;34.50;;;;;;;;5016884;28;45507;-69
2021/10/09 05:19:44;;;;;;;;;44.50;36.50;;;;;;;;5016408;28;46174;-70
2021/10/09 05:22:10;;;;;;;;;47.00;37.00;;;;;;;;5016161;28;45763;-71
2021/10/09 05:24:35;;;;;;;;;36.50;31.75;;;;;;;;5016773;28;45228;-68
2021/10/09 05:27:01;;;;;;;;;41.00;34.50;;;;;;;;5016767;28;45587;-71
2021/10/09 05:29:26;;;;;;;;;43.25;36.00;;;;;;;;5016408;28;45376;-70
2021/10/09 05:31:53;;;;;;;;;45.75;36.00;;;;;;;;5016095;28;45455;-69
2021/10/09 05:34:18;;;;;;;;;45.75;37.00;;;;;;;;5016238;28;45534;-71
2021/10/09 05:36:44;;;;;;;;;42.75;36.00;;;;;;;;5016293;28;45470;-71
2021/10/09 05:39:09;;;;;;;;;47.50;35.25;;;;;;;;5016273;28;45341;-70
2021/10/09 05:41:34;;;;;;;;;49.25;39.00;;;;;;;;5015867;28;45391;-71
2021/10/09 05:43:59;;;;;;;;;44.25;36.25;;;;;;;;5016248;28;45369;-70
2021/10/09 05:46:25;;;;;;;;;45.00;35.00;;;;;;;;5014818;28;45419;-72
2021/10/09 05:48:51;;;;;;;;;44.25;37.00;;;;;;;;5015798;28;45605;-71
2021/10/09 05:51:37;;;;;;;;;48.00;38.25;;;;;;;;5015782;28;45340;-71
2021/10/09 05:56:48;;;;;;;;;41.75;35.25;;;;;;;;5014776;28;45427;-69
2021/10/09 07:00:50;;;;;;;;;45.75;36.50;;;;;;;;5015171;28;45340;-71
2021/10/09 07:03:18;;;;;;;;;49.50;39.75;;;;;;;;5015211;28;45362;-71
2021/10/09 07:05:44;;;;;;;;;45.50;37.25;;;;;;;;5015245;28;45355;-71
2021/10/09 07:08:09;;;;;;;;;50.75;37.25;;;;;;;;5015261;28;45333;-70
2021/10/09 07:10:37;;;;;;;;;46.00;36.50;;;;;;;;5015360;28;45369;-73
2021/10/09 07:13:03;;;;;;;;;45.25;37.50;;;;;;;;5014767;28;46915;-72
2021/10/09 07:15:28;;;;;;;;;52.00;39.25;;;;;;;;5014643;28;45249;-71
2021/10/09 07:17:53;;;;;;;;;52.00;41.75;;;;;;;;5014542;28;45493;-70
2021/10/09 07:20:19;;;;;;;;;47.75;38.50;;;;;;;;5014817;28;45171;-70
2021/10/09 07:22:47;;;;;;;;;52.25;40.00;;;;;;;;5014605;28;46661;-72
2021/10/09 07:25:12;;;;;;;;;47.50;37.25;;;;;;;;5014871;28;45277;-71
2021/10/09 07:27:38;;;;;;;;;51.00;39.25;;;;;;;;5014377;28;45241;-70
2021/10/09 07:30:03;;;;;;;;;52.50;41.25;;;;;;;;5014564;28;45390;-70
2021/10/09 07:32:29;;;;;;;;;47.25;39.25;;;;;;;;5013846;28;46888;-70
2021/10/09 07:34:54;;;;;;;;;51.75;40.75;;;;;;;;5014150;28;45346;-70
2021/10/09 07:37:19;;;;;;;;;46.50;36.75;;;;;;;;5014373;28;45371;-71
2021/10/09 07:39:44;;;;;;;;;50.00;40.00;;;;;;;;5014866;28;45556;-72
2021/10/09 07:42:10;;;;;;;;;48.75;37.50;;;;;;;;5013792;28;46513;-71
2021/10/09 07:44:35;;;;;;;;;50.75;38.00;;;;;;;;5014282;28;45392;-70
2021/10/09 07:47:01;;;;;;;;;45.25;37.50;;;;;;;;5017754;28;45682;-69
2021/10/09 07:49:26;;;;;;;;;44.00;36.25;;;;;;;;5018035;28;45480;-71
2021/10/09 07:51:52;;;;;;;;;51.75;40.25;;;;;;;;5015918;28;47135;-71
2021/10/09 07:54:17;;;;;;;;;50.75;40.50;;;;;;;;5017671;28;45349;-72
2021/10/09 07:56:42;;;;;;;;;48.50;39.25;;;;;;;;5017687;28;45386;-72
2021/10/09 07:59:07;;;;;;;;;45.50;36.50;;;;;;;;5017737;28;45440;-71
2021/10/09 08:01:33;;;;;;;;;44.50;35.75;;;;;;;;5017205;28;46338;-71
2021/10/09 08:03:58;;;;;;;;;50.00;39.50;;;;;;;;5017598;28;45895;-69
2021/10/09 08:06:24;;;;;;;;;48.25;38.25;;;;;;;;5017492;28;45327;-72
2021/10/09 08:08:49;;;;;;;;;50.50;41.50;;;;;;;;5017968;28;45577;-72
2021/10/09 08:11:14;;;;;;;;;49.75;40.75;;;;;;;;5016312;28;45960;-72
2021/10/09 08:13:40;;;;;;;;;42.25;35.25;;;;;;;;5017616;28;45300;-71
2021/10/09 08:16:05;;;;;;;;;47.75;37.75;;;;;;;;5017450;28;45326;-70
2021/10/09 08:18:31;;;;;;;;;47.00;38.25;;;;;;;;5017517;28;45359;-72
2021/10/09 08:21:03;;;;;;;;;47.00;40.00;;;;;;;;5015554;28;47067;-70
2021/10/09 08:23:32;;;;;;;;;44.50;37.75;;;;;;;;5016831;28;45450;-72
2021/10/09 08:37:06;;;;;;;;;44.75;37.50;;;;;;;;5016922;28;45402;-71
2021/10/09 08:39:31;;;;;;;;;44.00;36.00;;;;;;;;5016864;28;45439;-72
2021/10/09 08:41:56;;;;;;;;;48.50;39.25;;;;;;;;5014872;28;46693;-71
2021/10/09 08:44:22;;;;;;;;;54.25;43.25;;;;;;;;5015091;28;45337;-72
2021/10/09 08:46:47;;;;;;;;;48.00;39.50;;;;;;;;5017404;28;45337;-72
2021/10/09 08:49:13;;;;;;;;;48.75;40.75;;;;;;;;5015619;28;45197;-72
2021/10/09 08:51:39;;;;;;;;;45.75;39.00;;;;;;;;5015208;28;47038;-72
2021/10/09 08:54:06;;;;;;;;;51.25;41.00;;;;;;;;5016490;28;45463;-71
2021/10/09 08:56:33;;;;;;;;;49.25;40.25;;;;;;;;5014039;28;45348;-72
2021/10/09 08:59:09;;;;;;;;;48.75;39.00;;;;;;;;5016613;28;45540;-71
2021/10/09 09:25:25;;;;;;;;;49.00;37.75;;;;;;;;5015947;28;45345;-69
2021/10/09 09:31:50;;;;;;;;;52.00;41.50;;;;;;;;5016502;28;45363;-70
2021/10/09 09:37:16;;;;;;;;;45.50;36.00;;;;;;;;5016030;28;45401;-71
2021/10/09 09:39:41;;;;;;;;;50.50;39.50;;;;;;;;5015676;28;45475;-71
2021/10/09 09:42:07;;;;;;;;;40.75;34.50;;;;;;;;5015878;28;45492;-71
2021/10/09 09:44:32;;;;;;;;;45.50;37.75;;;;;;;;5014039;28;47089;-73
2021/10/09 09:47:02;;;;;;;;;52.75;39.25;;;;;;;;5015781;28;45348;-71
2021/10/09 09:49:28;;;;;;;;;55.25;41.25;;;;;;;;5015927;28;45195;-71
2021/10/09 09:51:54;;;;;;;;;50.25;41.25;;;;;;;;5016310;28;45537;-72
2021/10/09 09:54:25;;;;;;;;;50.25;37.00;;;;;;;;5014439;28;47119;-71
2021/10/09 09:56:51;;;;;;;;;41.00;34.25;;;;;;;;5014494;28;45258;-72
2021/10/09 09:59:17;;;;;;;;;42.50;34.75;;;;;;;;5015407;28;45305;-72
2021/10/09 10:01:42;;;;;;;;;41.75;34.75;;;;;;;;5015650;28;45358;-71
2021/10/09 10:04:07;;;;;;;;;45.50;38.75;;;;;;;;5015053;28;45527;-71
2021/10/09 10:06:33;;;;;;;;;47.25;37.00;;;;;;;;5015281;28;45207;-70
2021/10/09 10:08:58;;;;;;;;;44.75;35.25;;;;;;;;5015159;28;45440;-71
2021/10/09 10:11:25;;;;;;;;;47.75;38.25;;;;;;;;5015606;28;46147;-73
2021/10/09 10:13:50;;;;;;;;;44.50;34.00;;;;;;;;5015840;28;46513;-70
2021/10/09 10:16:16;;;;;;;;;43.00;36.00;;;;;;;;5015556;28;45478;-71
2021/10/09 10:18:45;;;;;;;;;44.00;33.00;;;;;;;;5015176;28;45409;-72
2021/10/09 10:21:11;;;;;;;;;47.50;37.00;;;;;;;;5015730;28;45414;-73
2021/10/09 10:23:37;;;;;;;;;44.50;35.00;;;;;;;;5015401;28;45700;-72
2021/10/09 10:26:21;;;;;;;;;40.00;33.75;;;;;;;;5015206;28;45190;-72
2021/10/09 10:28:46;;;;;;;;;38.50;31.75;;;;;;;;5013706;28;45244;-73
2021/10/09 10:31:12;;;;;;;;;40.50;34.00;;;;;;;;5015112;28;45520;-71
2021/10/09 10:33:41;;;;;;;;;41.50;31.25;;;;;;;;5013736;28;46374;-72
2021/10/09 10:36:08;;;;;;;;;39.50;33.50;;;;;;;;5013438;28;45509;-71
2021/10/09 10:38:36;;;;;;;;;36.75;31.75;;;;;;;;5013501;28;45296;-71
2021/10/09 10:41:06;;;;;;;;;40.50;33.50;;;;;;;;5015141;28;45457;-73
2021/10/09 10:46:04;;;;;;;;;41.75;33.25;;;;;;;;5014888;28;45333;-72
2021/10/09 10:57:04;;;;;;;;;41.50;33.75;;;;;;;;5014974;28;45430;-71
2021/10/09 10:59:32;;;;;;;;;35.25;27.50;;;;;;;;5014403;28;45401;-71
2021/10/09 11:02:21;;;;;;;;;39.50;30.25;;;;;;;;5015017;28;45641;-72
2021/10/09 11:04:51;;;;;;;;;35.25;30.00;;;;;;;;5009130;28;45624;-71
2021/10/09 11:07:18;;;;;;;;;32.00;30.25;;;;;;;;5013535;28;45419;-72
2021/10/09 11:09:44;;;;;;;;;29.75;26.75;;;;;;;;5029757;28;45436;-72
2021/10/09 11:12:26;;;;;;;;;28.25;26.75;;;;;;;;5013112;28;45344;-73
2021/10/09 11:15:00;;;;;;;;;32.50;31.25;;;;;;;;5012996;28;47297;-73
2021/10/09 11:17:30;;;;;;;;;30.50;26.75;;;;;;;;5014714;28;45393;-72
2021/10/09 11:19:56;;;;;;;;;31.00;27.00;;;;;;;;5015511;28;45309;-73
2021/10/09 11:22:21;;;;;;;;;33.00;26.75;;;;;;;;5018087;28;45442;-72
2021/10/09 11:24:49;;;;;;;;;34.50;32.00;;;;;;;;5017615;28;45642;-72
2021/10/09 11:27:15;;;;;;;;;29.00;24.75;;;;;;;;5017685;28;45390;-71
2021/10/09 11:29:41;;;;;;;;;25.50;23.50;;;;;;;;5017631;28;45375;-73
2021/10/09 11:32:08;;;;;;;;;34.75;28.75;;;;;;;;5017806;28;45489;-71
2021/10/09 11:34:49;;;;;;;;;28.25;24.75;;;;;;;;5017202;28;46012;-73
2021/10/09 11:37:16;;;;;;;;;35.75;30.75;;;;;;;;5017616;28;45340;-71
2021/10/09 11:39:49;;;;;;;;;25.75;24.25;;;;;;;;5015791;28;45413;-73
2021/10/09 11:42:16;;;;;;;;;27.50;25.00;;;;;;;;5017135;28;45425;-73
2021/10/09 11:44:51;;;;;;;;;28.25;25.00;;;;;;;;5016955;28;46198;-72
2021/10/09 11:47:38;;;;;;;;;29.75;26.00;;;;;;;;5017034;28;45300;-72
2021/10/09 11:55:35;;;;;;;;;23.25;20.50;;;;;;;;5017288;28;45417;-72
2021/10/09 11:58:02;;;;;;;;;21.75;21.75;;;;;;;;5017285;28;45306;-71
2021/10/09 12:00:27;;;;;;;;;28.50;25.75;;;;;;;;5017752;28;45254;-72
2021/10/09 12:02:53;;;;;;;;;26.50;20.00;;;;;;;;5017357;28;45244;-74
2021/10/09 12:05:18;;;;;;;;;18.25;16.75;;;;;;;;5017056;28;45655;-72
2021/10/09 12:08:02;;;;;;;;;26.75;22.50;;;;;;;;5015357;28;46069;-71
2021/10/09 12:10:27;;;;;;;;;32.50;28.50;;;;;;;;5017428;28;45311;-72
2021/10/09 12:13:02;;;;;;;;;31.00;28.75;;;;;;;;5016883;28;45664;-71
2021/10/09 12:15:27;;;;;;;;;31.25;27.50;;;;;;;;5015453;28;47179;-72
2021/10/09 12:17:58;;;;;;;;;29.25;24.50;;;;;;;;5016597;28;45343;-75
2021/10/09 12:20:25;;;;;;;;;25.75;24.75;;;;;;;;5016756;28;45252;-72
2021/10/09 12:22:55;;;;;;;;;25.25;21.00;;;;;;;;5017463;28;45565;-72
2021/10/09 12:25:26;;;;;;;;;26.50;24.25;;;;;;;;5016452;28;45466;-72
2021/10/09 12:27:55;;;;;;;;;20.75;20.00;;;;;;;;5016267;28;45850;-72
2021/10/09 12:30:21;;;;;;;;;49.25;41.00;;;;;;;;5016440;28;45425;-73
2021/10/09 12:32:47;;;;;;;;;39.75;33.25;;;;;;;;5015813;28;45406;-72
2021/10/09 12:35:16;;;;;;;;;21.25;20.25;;;;;;;;5016884;28;46289;-70
2021/10/09 12:38:03;;;;;;;;;24.75;21.25;;;;;;;;5016417;28;45319;-71
2021/10/09 12:40:35;;;;;;;;;26.50;21.50;;;;;;;;5016908;28;45462;-72
2021/10/09 12:43:01;;;;;;;;;16.50;16.25;;;;;;;;5016849;28;45462;-72
2021/10/09 12:45:27;;;;;;;;;21.00;19.75;;;;;;;;5014762;28;47490;-72
2021/10/09 12:47:53;;;;;;;;;24.00;21.75;;;;;;;;5014914;28;45463;-71
2021/10/09 12:50:19;;;;;;;;;22.75;19.25;;;;;;;;5015093;28;45361;-71
2021/10/09 12:52:44;;;;;;;;;23.75;20.25;;;;;;;;5016326;28;45367;-73
2021/10/09 12:55:10;;;;;;;;;26.25;19.25;;;;;;;;5016209;28;46015;-72
2021/10/09 12:57:39;;;;;;;;;24.25;19.25;;;;;;;;5016170;28;45343;-72
2021/10/09 13:00:04;;;;;;;;;17.75;16.25;;;;;;;;5016198;28;45239;-70
2021/10/09 13:02:30;;;;;;;;;34.25;27.00;;;;;;;;5016683;28;45531;-71
2021/10/09 13:04:55;;;;;;;;;19.75;16.75;;;;;;;;5014589;28;48238;-73
2021/10/09 13:07:20;;;;;;;;;20.75;20.00;;;;;;;;5014877;28;45336;-70
2021/10/09 13:09:54;;;;;;;;;22.25;21.25;;;;;;;;5016537;28;45240;-73
2021/10/09 13:12:19;;;;;;;;;24.75;21.75;;;;;;;;5014970;28;45408;-73
2021/10/09 13:14:45;;;;;;;;;20.75;19.75;;;;;;;;5015888;28;45913;-71
2021/10/09 13:17:10;;;;;;;;;27.00;23.25;;;;;;;;5016039;28;45378;-71
2021/10/09 13:19:35;;;;;;;;;28.00;25.00;;;;;;;;5016420;28;45354;-70
2021/10/09 13:22:00;;;;;;;;;23.25;21.00;;;;;;;;5017150;28;45350;-72
2021/10/09 13:24:25;;;;;;;;;28.25;23.50;;;;;;;;5014691;28;46517;-71
2021/10/09 13:26:51;;;;;;;;;31.00;26.50;;;;;;;;5016206;28;45312;-70
2021/10/09 13:29:16;;;;;;;;;20.00;18.50;;;;;;;;5014965;28;45440;-72
2021/10/09 13:31:41;;;;;;;;;27.75;21.75;;;;;;;;5016260;28;45476;-70
2021/10/09 13:34:06;;;;;;;;;20.25;19.50;;;;;;;;5016121;28;45654;-71
2021/10/09 13:36:32;;;;;;;;;23.75;20.75;;;;;;;;5016535;28;45293;-72
2021/10/09 13:38:57;;;;;;;;;24.25;24.00;;;;;;;;5014971;28;45385;-73
2021/10/09 13:41:23;;;;;;;;;22.50;21.00;;;;;;;;5015921;28;45612;-71
2021/10/09 13:43:48;;;;;;;;;23.50;18.75;;;;;;;;5015149;28;45252;-73
2021/10/09 13:46:14;;;;;;;;;25.00;21.00;;;;;;;;5016038;28;45648;-70
2021/10/09 13:48:43;;;;;;;;;23.00;20.50;;;;;;;;5016207;28;45308;-71
2021/10/09 13:51:13;;;;;;;;;23.00;21.25;;;;;;;;5016175;28;45481;-71
2021/10/09 13:53:40;;;;;;;;;23.25;22.50;;;;;;;;5014249;28;46891;-71
2021/10/09 13:56:05;;;;;;;;;25.50;24.75;;;;;;;;5015819;28;45406;-70
2021/10/09 13:58:30;;;;;;;;;25.00;21.75;;;;;;;;5014799;28;45431;-72
2021/10/09 14:00:56;;;;;;;;;23.50;22.50;;;;;;;;5016209;28;45350;-70
2021/10/09 14:03:21;;;;;;;;;44.50;36.50;;;;;;;;5014164;28;47214;-72
2021/10/09 14:05:47;;;;;;;;;21.25;21.00;;;;;;;;5015555;28;45371;-72
2021/10/09 14:08:12;;;;;;;;;26.25;25.50;;;;;;;;5014243;28;45337;-71
2021/10/09 14:10:38;;;;;;;;;15.75;13.00;;;;;;;;5015756;28;45229;-72
2021/10/09 14:13:05;;;;;;;;;22.75;20.50;;;;;;;;5015565;28;45271;-71
2021/10/09 14:15:31;;;;;;;;;18.00;16.75;;;;;;;;5015181;28;45211;-72
2021/10/09 14:17:56;;;;;;;;;20.75;19.00;;;;;;;;5015267;28;45231;-73
2021/10/09 14:20:21;;;;;;;;;20.75;17.75;;;;;;;;5014196;28;45266;-72
2021/10/09 14:22:47;;;;;;;;;26.25;20.75;;;;;;;;5015249;28;46416;-73
2021/10/09 14:25:15;;;;;;;;;24.50;22.00;;;;;;;;5014923;28;45332;-71
2021/10/09 14:27:40;;;;;;;;;26.00;18.25;;;;;;;;5013545;28;45368;-71
2021/10/09 14:30:07;;;;;;;;;26.50;20.25;;;;;;;;5014253;28;45437;-71
2021/10/09 14:32:32;;;;;;;;;23.75;22.00;;;;;;;;5015267;28;46630;-72
2021/10/09 14:34:57;;;;;;;;;19.50;16.50;;;;;;;;5013450;28;45424;-73
2021/10/09 14:37:23;;;;;;;;;25.00;21.25;;;;;;;;5014970;28;45252;-71
2021/10/09 14:39:49;;;;;;;;;52.25;42.75;;;;;;;;5015428;28;45625;-72
2021/10/09 14:42:14;;;;;;;;;17.75;17.50;;;;;;;;5014483;28;45304;-71
2021/10/09 14:44:39;;;;;;;;;19.00;17.50;;;;;;;;5013255;28;45248;-72
2021/10/09 15:19:07;;;;;;;;;25.00;21.75;;;;;;;;5014772;28;45335;-71
2021/10/09 15:21:32;;;;;;;;;22.00;19.75;;;;;;;;5013232;28;45507;-72
2021/10/09 15:23:57;;;;;;;;;24.00;21.00;;;;;;;;5014182;28;46391;-70
2021/10/09 15:26:22;;;;;;;;;23.75;19.75;;;;;;;;5014406;28;45270;-72
2021/10/09 15:28:48;;;;;;;;;23.75;19.25;;;;;;;;5014768;28;45248;-73
2021/10/09 15:31:15;;;;;;;;;56.25;45.75;;;;;;;;5014646;28;45622;-71
2021/10/09 15:33:40;;;;;;;;;52.75;43.00;;;;;;;;5014580;28;46615;-72
2021/10/09 15:36:05;;;;;;;;;22.50;22.50;;;;;;;;5014699;28;45394;-70
2021/10/09 15:38:31;;;;;;;;;25.25;21.75;;;;;;;;5014460;28;45414;-71
2021/10/09 15:40:56;;;;;;;;;21.25;20.50;;;;;;;;5014906;28;45502;-71
2021/10/09 15:43:21;;;;;;;;;22.75;19.50;;;;;;;;5014215;28;45810;-72
2021/10/09 15:45:46;;;;;;;;;24.00;21.00;;;;;;;;5014775;28;45275;-71
2021/10/09 15:48:12;;;;;;;;;17.00;15.75;;;;;;;;5012818;28;45376;-71
2021/10/09 15:50:37;;;;;;;;;24.00;20.75;;;;;;;;5014530;28;45367;-72
2021/10/09 15:53:02;;;;;;;;;20.25;19.50;;;;;;;;5013895;28;45918;-71
2021/10/09 15:55:29;;;;;;;;;22.00;20.50;;;;;;;;5014260;28;45265;-71
2021/10/09 15:57:55;;;;;;;;;24.75;23.25;;;;;;;;5014361;28;45411;-73
2021/10/09 16:00:21;;;;;;;;;22.25;20.75;;;;;;;;5014379;28;45319;-72
2021/10/09 16:02:46;;;;;;;;;24.50;23.00;;;;;;;;5014106;28;45636;-72
2021/10/09 16:05:13;;;;;;;;;25.75;20.75;;;;;;;;5013206;28;45412;-72
2021/10/09 16:07:38;;;;;;;;;22.00;20.50;;;;;;;;5017741;28;45461;-71
2021/10/09 16:10:04;;;;;;;;;27.50;26.25;;;;;;;;5017745;28;45431;-72
2021/10/09 16:12:30;;;;;;;;;24.75;20.50;;;;;;;;5017055;28;45605;-72
2021/10/09 16:14:55;;;;;;;;;26.00;22.00;;;;;;;;5017449;28;45401;-73
2021/10/09 16:17:20;;;;;;;;;33.25;26.50;;;;;;;;5017685;28;45506;-71
2021/10/09 16:19:46;;;;;;;;;30.75;25.75;;;;;;;;5016155;28;45503;-72
2021/10/09 16:22:11;;;;;;;;;28.50;25.00;;;;;;;;5017187;28;46275;-71
2021/10/09 16:24:36;;;;;;;;;21.75;19.50;;;;;;;;5017182;28;45485;-72
2021/10/09 16:27:02;;;;;;;;;25.75;23.00;;;;;;;;5017528;28;45418;-72
2021/10/09 16:29:27;;;;;;;;;32.50;23.75;;;;;;;;5017274;28;45465;-71
2021/10/09 16:31:52;;;;;;;;;21.25;18.00;;;;;;;;5017212;28;46640;-74
2021/10/09 16:34:17;;;;;;;;;29.25;23.50;;;;;;;;5016989;28;45426;-73
2021/10/09 16:36:43;;;;;;;;;23.75;23.75;;;;;;;;5017401;28;45375;-71
2021/10/09 16:39:08;;;;;;;;;22.00;20.25;;;;;;;;5017494;28;45526;-72
2021/10/09 16:41:33;;;;;;;;;25.00;21.75;;;;;;;;5016669;28;45393;-73
2021/10/09 16:43:59;;;;;;;;;27.50;26.00;;;;;;;;5016702;28;45374;-71
2021/10/09 16:46:24;;;;;;;;;26.50;21.50;;;;;;;;5016747;28;45328;-70
2021/10/09 16:48:49;;;;;;;;;20.75;17.00;;;;;;;;5016655;28;45491;-71
2021/10/09 16:51:15;;;;;;;;;41.25;28.00;;;;;;;;5016691;28;45396;-72
2021/10/09 16:53:40;;;;;;;;;27.75;23.50;;;;;;;;5017075;28;45196;-70
2021/10/09 16:56:05;;;;;;;;;28.50;25.00;;;;;;;;5015428;28;45246;-72
2021/10/09 16:58:31;;;;;;;;;20.50;20.25;;;;;;;;5017024;28;45162;-73
2021/10/09 17:00:56;;;;;;;;;26.50;22.75;;;;;;;;5016654;28;45447;-72